Time;durP1;ratioP1;P1;durP2;ratioP2;P2;SDS_P1;SDS_P2;PMS_P1;PMS_P2;Temp;Humidity;BMP_temperature;BMP_pressure;BME280_temperature;BME280_humidity;BME280_pressure;Samples;Min_cycle;Max_cycle;Signal;HPM_P1;HPM_P2
2021/11/30 00:00:13;;;;;;;0.80;0.80;;;;;;;0.49;87.14;96731.94;29373;221;63009;-68
2021/11/30 00:00:45;;;;;;;0.80;0.80;;;;;;;0.45;87.20;96733.44;29373;232;63004;-72
2021/11/30 00:01:16;;;;;;;0.80;0.80;;;;;;;0.48;86.99;96719.62;29373;306;63008;-72
2021/11/30 00:01:47;;;;;;;0.80;0.80;;;;;;;0.42;87.11;96741.91;29374;214;63005;-69
2021/11/30 00:02:19;;;;;;;0.80;0.80;;;;;;;0.37;87.17;96731.13;29374;299;63009;-69
2021/11/30 00:02:50;;;;;;;0.80;0.80;;;;;;;0.33;87.28;96729.97;29374;258;63005;-69
2021/11/30 00:03:24;;;;;;;0.80;0.80;;;;;;;0.33;87.75;96741.47;29374;219;63009;-68
2021/11/30 00:03:58;;;;;;;0.80;0.80;;;;;;;0.33;87.74;96738.00;29373;258;63005;-70
2021/11/30 00:04:30;;;;;;;0.70;0.70;;;;;;;0.38;87.87;96730.06;29374;269;63024;-74
2021/11/30 00:05:03;;;;;;;0.80;0.80;;;;;;;0.40;87.93;96741.34;29372;220;64005;-70
2021/11/30 00:05:34;;;;;;;0.70;0.70;;;;;;;0.37;87.73;96741.78;29374;198;63009;-70
2021/11/30 00:06:06;;;;;;;0.80;0.80;;;;;;;0.38;87.83;96734.59;29374;252;63004;-70
2021/11/30 00:06:38;;;;;;;0.80;0.80;;;;;;;0.49;87.36;96723.94;29373;222;64009;-67
2021/11/30 00:07:09;;;;;;;0.70;0.70;;;;;;;0.50;86.91;96738.09;29374;202;63004;-66
2021/11/30 00:07:40;;;;;;;0.80;0.80;;;;;;;0.52;86.75;96731.47;29374;215;63008;-68
2021/11/30 00:08:13;;;;;;;0.80;0.80;;;;;;;0.51;86.76;96729.03;29374;241;63004;-67
2021/11/30 00:08:44;;;;;;;0.73;0.73;;;;;;;0.47;87.02;96739.37;29374;196;63008;-66
2021/11/30 00:10:43;;;;;;;0.73;0.73;;;;;;;0.45;87.14;96738.78;29372;238;64004;-67
2021/11/30 00:11:11;;;;;;;0.85;0.85;;;;;;;0.46;87.20;96736.94;29396;258;63009;-67
2021/11/30 00:11:42;;;;;;;0.80;0.80;;;;;;;0.45;87.21;96741.44;29396;207;63009;-68
2021/11/30 00:12:23;;;;;;;0.80;0.80;;;;;;;0.54;86.96;96748.06;29374;220;63005;-67
2021/11/30 00:12:54;;;;;;;0.80;0.80;;;;;;;0.56;86.91;96743.31;29396;196;63009;-66
2021/11/30 00:13:27;;;;;;;0.80;0.80;;;;;;;0.55;86.84;96736.34;29395;256;64004;-69
2021/11/30 00:13:59;;;;;;;0.80;0.80;;;;;;;0.50;86.89;96746.91;29374;256;63009;-67
2021/11/30 00:14:30;;;;;;;0.80;0.80;;;;;;;0.47;87.16;96749.22;29374;220;63004;-67
2021/11/30 00:15:03;;;;;;;0.80;0.80;;;;;;;0.45;87.30;96751.31;29374;210;63009;-66
2021/11/30 00:15:34;;;;;;;0.80;0.80;;;;;;;0.44;87.55;96744.34;29374;250;63004;-67
2021/11/30 00:16:07;;;;;;;0.80;0.80;;;;;;;0.40;87.68;96746.66;29372;218;64009;-68
2021/11/30 00:16:38;;;;;;;0.70;0.70;;;;;;;0.41;87.70;96753.63;29374;236;63005;-73
2021/11/30 00:17:11;;;;;;;0.70;0.70;;;;;;;0.44;87.97;96745.16;29374;241;63009;-77
2021/11/30 00:17:42;;;;;;;0.70;0.70;;;;;;;0.42;87.91;96741.91;29374;238;63005;-69
2021/11/30 00:18:14;;;;;;;0.80;0.80;;;;;;;0.42;88.02;96741.91;29374;221;63017;-68
2021/11/30 00:18:45;;;;;;;0.80;0.80;;;;;;;0.41;88.15;96750.16;29374;238;63005;-67
2021/11/30 00:19:17;;;;;;;0.80;0.80;;;;;;;0.37;88.20;96744.47;29374;222;63009;-68
2021/11/30 00:19:50;;;;;;;0.80;0.80;;;;;;;0.36;88.42;96747.34;29374;262;63005;-66
2021/11/30 00:20:22;;;;;;;0.80;0.80;;;;;;;0.36;88.49;96747.34;29372;218;64009;-64
2021/11/30 00:20:57;;;;;;;0.80;0.80;;;;;;;0.34;88.76;96744.94;29374;229;63007;-69
2021/11/30 00:21:28;;;;;;;0.80;0.80;;;;;;;0.33;88.86;96746.00;29374;260;63013;-64
2021/11/30 00:22:00;;;;;;;0.75;0.75;;;;;;;0.35;88.95;96746.53;29374;196;63004;-64
2021/11/30 00:22:32;;;;;;;0.80;0.80;;;;;;;0.32;88.96;96742.50;29372;211;64009;-68
2021/11/30 00:23:05;;;;;;;0.80;0.80;;;;;;;0.28;89.12;96751.22;29372;234;64004;-66
2021/11/30 00:23:37;;;;;;;0.80;0.80;;;;;;;0.27;89.23;96754.91;29374;210;63009;-68
2021/11/30 00:24:08;;;;;;;0.80;0.80;;;;;;;0.25;89.27;96757.00;29374;257;63005;-68
2021/11/30 00:24:40;;;;;;;0.80;0.80;;;;;;;0.22;89.54;96763.63;29374;236;63009;-67
2021/11/30 00:25:11;;;;;;;0.80;0.80;;;;;;;0.23;89.68;96764.44;29374;254;63005;-66
2021/11/30 00:25:43;;;;;;;0.80;0.80;;;;;;;0.29;89.72;96753.66;29374;226;63009;-67
2021/11/30 00:26:14;;;;;;;0.80;0.80;;;;;;;0.29;89.69;96766.19;29372;212;64005;-66
2021/11/30 00:26:45;;;;;;;0.80;0.80;;;;;;;0.26;89.59;96764.78;29374;202;63009;-63
2021/11/30 00:27:18;;;;;;;0.80;0.80;;;;;;;0.30;89.83;96757.13;29372;246;64005;-59
2021/11/30 00:27:49;;;;;;;0.73;0.73;;;;;;;0.27;89.56;96762.94;29374;228;63009;-66
2021/11/30 00:28:20;;;;;;;0.80;0.80;;;;;;;0.32;89.61;96763.06;29374;229;63004;-66
2021/11/30 00:28:52;;;;;;;0.80;0.80;;;;;;;0.28;89.63;96765.38;29374;225;63009;-67
2021/11/30 00:29:23;;;;;;;0.80;0.80;;;;;;;0.24;89.53;96766.88;29372;203;63997;-66
2021/11/30 00:29:54;;;;;;;0.80;0.80;;;;;;;0.23;89.73;96770.56;29374;198;63009;-71
2021/11/30 00:30:26;;;;;;;0.80;0.80;;;;;;;0.29;89.86;96768.84;29374;199;63004;-67
2021/11/30 00:30:57;;;;;;;0.80;0.80;;;;;;;0.29;90.13;96763.50;29374;210;63008;-58
2021/11/30 00:31:29;;;;;;;0.80;0.80;;;;;;;0.26;89.93;96766.63;29374;208;63005;-63
2021/11/30 00:32:01;;;;;;;0.80;0.80;;;;;;;0.34;90.12;96766.31;29374;209;63009;-68
2021/11/30 00:32:32;;;;;;;0.80;0.80;;;;;;;0.34;90.09;96768.97;29373;209;64005;-64
2021/11/30 00:33:08;;;;;;;0.80;0.80;;;;;;;0.34;89.96;96771.66;29372;237;64009;-65
2021/11/30 00:33:39;;;;;;;0.80;0.80;;;;;;;0.29;89.95;96768.84;29374;222;63005;-65
2021/11/30 00:34:11;;;;;;;0.80;0.80;;;;;;;0.24;89.95;96766.06;29374;216;63015;-66
2021/11/30 00:34:42;;;;;;;0.80;0.80;;;;;;;0.16;90.05;96761.87;29374;225;63009;-68
2021/11/30 00:35:13;;;;;;;0.80;0.80;;;;;;;0.10;90.30;96764.63;29374;215;63009;-65
2021/11/30 00:35:46;;;;;;;0.80;0.80;;;;;;;0.13;90.55;96774.84;29374;205;63004;-57
2021/11/30 00:36:18;;;;;;;0.80;0.80;;;;;;;0.25;90.66;96767.69;29374;209;63009;-67
2021/11/30 00:36:50;;;;;;;0.80;0.80;;;;;;;0.27;90.61;96765.59;29375;246;63004;-64
2021/11/30 00:37:21;;;;;;;0.80;0.80;;;;;;;0.31;90.60;96766.75;29375;240;63009;-63
2021/11/30 00:37:53;;;;;;;0.80;0.80;;;;;;;0.34;90.44;96776.97;29372;226;64004;-71
2021/11/30 00:38:26;;;;;;;0.80;0.80;;;;;;;0.33;90.18;96773.50;29375;226;63008;-63
2021/11/30 00:38:58;;;;;;;0.70;0.70;;;;;;;0.28;89.97;96767.22;29375;236;63005;-63
2021/11/30 00:39:30;;;;;;;0.80;0.80;;;;;;;0.26;90.36;96766.63;29374;203;64009;-66
2021/11/30 00:40:02;;;;;;;0.80;0.80;;;;;;;0.24;90.41;96777.53;29375;268;63005;-68
2021/11/30 00:40:35;;;;;;;0.77;0.77;;;;;;;0.24;90.61;96771.38;29375;200;63009;-60
2021/11/30 00:41:06;;;;;;;0.90;0.90;;;;;;;0.26;90.65;96769.31;29375;259;63016;-63
2021/11/30 00:41:41;;;;;;;0.80;0.80;;;;;;;0.24;90.76;96774.88;29375;228;63009;-63
2021/11/30 00:42:13;;;;;;;0.80;0.80;;;;;;;0.21;90.62;96777.19;29375;220;63005;-64
2021/11/30 00:42:44;;;;;;;0.70;0.70;;;;;;;0.18;90.72;96773.12;29373;261;64009;-61
2021/11/30 00:43:24;;;;;;;0.70;0.70;;;;;;;0.17;90.94;96771.50;29375;202;63004;-63
2021/11/30 00:43:56;;;;;;;0.80;0.80;;;;;;;0.14;91.10;96779.94;29375;200;63009;-62
2021/11/30 00:44:29;;;;;;;0.90;0.90;;;;;;;0.14;90.99;96776.47;29375;226;63004;-62
2021/11/30 00:45:04;;;;;;;0.80;0.80;;;;;;;0.07;91.12;96776.56;29375;197;63015;-62
2021/11/30 00:45:41;;;;;;;0.80;0.80;;;;;;;0.08;91.37;96772.84;29375;261;63004;-62
2021/11/30 00:46:15;;;;;;;0.80;0.80;;;;;;;0.06;91.51;96776.78;29376;206;63008;-63
2021/11/30 00:46:49;;;;;;;0.80;0.80;;;;;;;0.02;91.42;96773.78;29376;203;63005;-55
2021/11/30 00:47:28;;;;;;;0.80;0.80;;;;;;;0.00;91.65;96765.22;29376;214;63009;-63
2021/11/30 00:47:59;;;;;;;0.80;0.80;;;;;;;0.07;91.85;96770.41;29374;211;64005;-58
2021/11/30 00:48:31;;;;;;;0.80;0.80;;;;;;;0.15;91.53;96772.75;29376;253;63009;-63
2021/11/30 00:49:06;;;;;;;1.83;1.73;;;;;;;0.18;91.41;96772.31;29376;226;63005;-59
2021/11/30 00:49:37;;;;;;;0.80;0.80;;;;;;;0.18;91.25;96778.44;29376;202;63009;-61
2021/11/30 00:50:09;;;;;;;0.80;0.80;;;;;;;0.17;90.99;96771.50;29374;220;64005;-72
2021/11/30 00:50:45;;;;;;;0.80;0.80;;;;;;;0.19;90.73;96768.59;29376;221;63009;-57
2021/11/30 00:51:20;;;;;;;0.80;0.80;;;;;;;0.22;90.61;96774.28;29376;215;63016;-62
2021/11/30 00:51:53;;;;;;;0.80;0.80;;;;;;;0.17;90.55;96771.50;29376;221;63009;-56
2021/11/30 00:52:26;;;;;;;0.80;0.80;;;;;;;0.12;90.52;96778.56;29376;242;63004;-62
2021/11/30 00:52:57;;;;;;;0.70;0.70;;;;;;;0.11;90.76;96771.59;29376;247;63008;-60
2021/11/30 00:53:29;;;;;;;0.80;0.80;;;;;;;0.14;91.07;96773.81;29376;220;63004;-68
2021/11/30 00:54:02;;;;;;;0.70;0.70;;;;;;;0.18;90.80;96774.97;29376;211;63009;-66
2021/11/30 00:54:33;;;;;;;0.80;0.80;;;;;;;0.20;90.64;96771.03;29376;212;63015;-62
2021/11/30 00:55:07;;;;;;;0.80;0.80;;;;;;;0.24;90.66;96771.38;29376;223;63009;-60
2021/11/30 00:55:38;;;;;;;0.80;0.80;;;;;;;0.26;90.41;96767.44;29374;241;64005;-60
2021/11/30 00:56:10;;;;;;;0.80;0.80;;;;;;;0.24;90.41;96766.06;29376;248;63009;-62
2021/11/30 00:56:44;;;;;;;0.80;0.80;;;;;;;0.19;90.43;96773.94;29376;198;63005;-64
2021/11/30 00:57:17;;;;;;;0.80;0.80;;;;;;;0.13;90.38;96770.31;29376;209;63009;-64
2021/11/30 00:57:48;;;;;;;0.70;0.70;;;;;;;0.10;90.25;96764.63;29376;229;63005;-57
2021/11/30 00:58:20;;;;;;;1.15;1.15;;;;;;;0.12;90.56;96778.56;29376;220;63017;-56
2021/11/30 00:58:53;;;;;;;0.70;0.70;;;;;;;0.13;90.84;96780.19;29376;228;63004;-63
2021/11/30 00:59:28;;;;;;;0.80;0.80;;;;;;;0.17;90.50;96786.69;29373;253;64009;-60
2021/11/30 00:59:59;;;;;;;0.80;0.80;;;;;;;0.19;90.67;96781.94;29376;225;63004;-63
2021/11/30 01:00:35;;;;;;;0.70;0.70;;;;;;;0.19;90.44;96779.28;29373;214;64008;-61
2021/11/30 01:01:07;;;;;;;0.80;0.80;;;;;;;0.22;90.33;96773.47;29376;259;63004;-64
2021/11/30 01:01:39;;;;;;;0.80;0.80;;;;;;;0.26;90.35;96777.31;29375;211;63009;-63
2021/11/30 01:02:10;;;;;;;0.80;0.80;;;;;;;0.26;90.01;96779.97;29375;211;63004;-57
2021/11/30 01:02:41;;;;;;;0.80;0.80;;;;;;;0.25;89.99;96781.03;29375;256;63009;-62
2021/11/30 01:03:13;;;;;;;0.80;0.80;;;;;;;0.22;89.85;96778.81;29375;250;63005;-64
2021/11/30 01:03:44;;;;;;;0.70;0.70;;;;;;;0.19;89.98;96776.59;29375;239;63015;-63
2021/11/30 01:04:15;;;;;;;0.80;0.80;;;;;;;0.20;90.32;96783.56;29375;202;63005;-63
2021/11/30 01:04:47;;;;;;;0.80;0.80;;;;;;;0.20;90.22;96786.22;29375;257;63009;-68
2021/11/30 01:05:20;;;;;;;0.75;0.75;;;;;;;0.22;90.14;96784.16;29375;245;63005;-63
2021/11/30 01:05:51;;;;;;;0.75;0.75;;;;;;;0.18;89.91;96785.66;29373;216;64009;-63
2021/11/30 01:06:23;;;;;;;0.80;0.80;;;;;;;0.17;90.02;96798.16;29375;247;63004;-63
2021/11/30 01:06:55;;;;;;;0.80;0.80;;;;;;;0.15;89.91;96788.78;29375;214;63009;-61
2021/11/30 01:07:27;;;;;;;0.80;0.80;;;;;;;0.16;89.89;96785.88;29375;211;63004;-66
2021/11/30 01:07:58;;;;;;;0.80;0.80;;;;;;;0.20;90.05;96791.56;29376;211;63023;-63
2021/11/30 01:08:30;;;;;;;0.70;0.70;;;;;;;0.17;89.76;96786.69;29375;202;63004;-56
2021/11/30 01:09:01;;;;;;;0.80;0.80;;;;;;;0.16;89.80;96793.06;29375;231;63009;-62
2021/11/30 01:09:32;;;;;;;0.80;0.80;;;;;;;0.14;89.71;96793.28;29375;206;63005;-62
2021/11/30 01:10:10;;;;;;;0.70;0.70;;;;;;;0.16;89.94;96791.22;29373;213;64009;-66
2021/11/30 01:10:41;;;;;;;0.80;0.80;;;;;;;0.14;89.88;96784.47;29375;216;63005;-63
2021/11/30 01:11:13;;;;;;;0.80;0.80;;;;;;;0.15;89.91;96789.59;29375;233;63009;-63
2021/11/30 01:11:46;;;;;;;0.70;0.70;;;;;;;0.14;89.92;96785.28;29375;262;63005;-63
2021/11/30 01:12:17;;;;;;;0.80;0.80;;;;;;;0.23;89.80;96785.78;29375;226;63009;-68
2021/11/30 01:12:48;;;;;;;0.80;0.80;;;;;;;0.24;89.40;96790.88;29375;227;63000;-63
2021/11/30 01:13:20;;;;;;;0.80;0.80;;;;;;;0.25;89.33;96789.03;29375;205;63009;-62
2021/11/30 01:13:52;;;;;;;0.80;0.80;;;;;;;0.26;89.42;96785.31;29373;206;64004;-65
2021/11/30 01:14:23;;;;;;;0.70;0.70;;;;;;;0.25;89.18;96784.50;29375;228;63009;-64
2021/11/30 01:14:54;;;;;;;0.80;0.80;;;;;;;0.24;89.21;96788.22;29375;214;63004;-63
2021/11/30 01:15:26;;;;;;;0.80;0.80;;;;;;;0.22;89.37;96786.81;29373;210;64008;-64
2021/11/30 01:15:57;;;;;;;0.80;0.80;;;;;;;0.18;89.30;96782.97;29375;220;63004;-65
2021/11/30 01:16:29;;;;;;;0.80;0.80;;;;;;;0.16;89.57;96782.38;29375;213;63019;-65
2021/11/30 01:17:01;;;;;;;0.80;0.80;;;;;;;0.15;89.47;96778.09;29375;249;63005;-65
2021/11/30 01:17:32;;;;;;;0.80;0.80;;;;;;;0.15;89.70;96784.25;29375;203;63009;-64
2021/11/30 01:18:04;;;;;;;0.80;0.80;;;;;;;0.13;89.62;96786.34;29375;216;63005;-63
2021/11/30 01:18:35;;;;;;;0.80;0.80;;;;;;;0.12;89.87;96781.22;29375;199;63009;-64
2021/11/30 01:19:07;;;;;;;0.80;0.80;;;;;;;0.10;89.93;96780.62;29373;222;64005;-66
2021/11/30 01:19:38;;;;;;;0.70;0.70;;;;;;;0.06;89.75;96780.28;29375;205;63009;-64
2021/11/30 01:20:11;;;;;;;0.80;0.80;;;;;;;0.05;90.02;96786.66;29373;209;64004;-64
2021/11/30 01:20:43;;;;;;;0.80;0.80;;;;;;;0.05;90.16;96788.50;29375;215;63009;-64
2021/11/30 01:21:14;;;;;;;0.80;0.80;;;;;;;0.08;90.27;96788.06;29375;234;63004;-69
2021/11/30 01:21:46;;;;;;;0.80;0.80;;;;;;;0.18;89.81;96794.47;29375;216;63009;-68
2021/11/30 01:22:17;;;;;;;0.80;0.80;;;;;;;0.24;88.99;96796.22;29375;213;63006;-64
2021/11/30 01:22:49;;;;;;;0.80;0.80;;;;;;;0.27;88.76;96798.44;29375;245;63008;-62
2021/11/30 01:23:21;;;;;;;0.80;0.80;;;;;;;0.25;88.60;96794.38;29375;220;63005;-64
2021/11/30 01:23:52;;;;;;;1.05;1.05;;;;;;;0.24;88.36;96793.56;29375;221;63009;-64
2021/11/30 01:24:23;;;;;;;0.70;0.70;;;;;;;0.24;88.21;96800.75;29373;209;64005;-63
2021/11/30 01:24:54;;;;;;;0.80;0.80;;;;;;;0.20;88.47;96803.06;29376;210;63017;-64
2021/11/30 01:25:26;;;;;;;0.80;0.80;;;;;;;0.18;88.53;96793.66;29375;211;63005;-64
2021/11/30 01:26:02;;;;;;;0.80;0.80;;;;;;;0.19;88.92;96796.09;29375;249;63009;-62
2021/11/30 01:26:34;;;;;;;0.80;0.80;;;;;;;0.23;88.74;96796.44;29373;222;64005;-64
2021/11/30 01:27:05;;;;;;;0.80;0.80;;;;;;;0.26;88.49;96798.66;29375;236;63009;-64
2021/11/30 01:27:38;;;;;;;0.80;0.80;;;;;;;0.30;88.09;96791.81;29373;224;64004;-66
2021/11/30 01:28:09;;;;;;;0.80;0.80;;;;;;;0.28;87.72;96800.06;29375;263;63009;-57
2021/11/30 01:28:40;;;;;;;0.70;0.70;;;;;;;0.24;87.79;96798.06;29375;243;63004;-57
2021/11/30 01:29:14;;;;;;;0.80;0.80;;;;;;;0.22;88.03;96800.16;29375;204;63009;-65
2021/11/30 01:29:45;;;;;;;0.80;0.80;;;;;;;0.21;88.14;96798.53;29376;205;63004;-58
2021/11/30 01:30:19;;;;;;;0.80;0.80;;;;;;;0.26;88.02;96812.00;29375;211;63014;-58
2021/11/30 01:30:50;;;;;;;0.80;0.80;;;;;;;0.21;88.01;96799.34;29375;242;63005;-66
2021/11/30 01:31:22;;;;;;;0.80;0.80;;;;;;;0.22;88.15;96802.81;29373;203;64009;-56
2021/11/30 01:31:53;;;;;;;0.80;0.80;;;;;;;0.29;87.99;96800.87;29375;202;63005;-58
2021/11/30 01:32:24;;;;;;;0.70;0.70;;;;;;;0.29;87.66;96808.88;29373;225;64009;-70
2021/11/30 01:32:56;;;;;;;0.70;0.70;;;;;;;0.28;87.39;96807.25;29375;214;63005;-57
2021/11/30 01:33:29;;;;;;;0.80;0.80;;;;;;;0.24;87.60;96808.75;29375;224;63016;-65
2021/11/30 01:34:01;;;;;;;0.80;0.80;;;;;;;0.26;87.92;96809.34;29375;223;63005;-59
2021/11/30 01:34:32;;;;;;;0.80;0.80;;;;;;;0.24;87.98;96808.75;29375;249;63009;-58
2021/11/30 01:35:04;;;;;;;0.80;0.80;;;;;;;0.23;87.90;96809.78;29375;198;63004;-56
2021/11/30 01:35:36;;;;;;;0.70;0.70;;;;;;;0.20;88.11;96810.25;29375;218;63009;-64
2021/11/30 01:36:08;;;;;;;0.80;0.80;;;;;;;0.23;88.16;96812.47;29375;202;63004;-57
2021/11/30 01:36:39;;;;;;;0.80;0.80;;;;;;;0.22;88.26;96821.50;29375;202;63009;-64
2021/11/30 01:37:15;;;;;;;0.77;0.77;;;;;;;0.33;87.56;96818.06;29375;209;63004;-62
2021/11/30 01:37:48;;;;;;;0.80;0.80;;;;;;;0.33;87.30;96812.72;29373;209;64008;-57
2021/11/30 01:38:20;;;;;;;0.80;0.80;;;;;;;0.29;87.36;96812.34;29375;241;63005;-58
2021/11/30 01:38:52;;;;;;;0.80;0.80;;;;;;;0.29;87.70;96811.53;29375;230;63009;-59
2021/11/30 01:39:23;;;;;;;0.70;0.70;;;;;;;0.28;87.74;96812.59;29375;202;63005;-57
2021/11/30 01:39:55;;;;;;;0.80;0.80;;;;;;;0.28;87.77;96807.25;29375;203;63009;-64
2021/11/30 01:40:28;;;;;;;0.70;0.70;;;;;;;0.25;87.99;96813.84;29375;203;63005;-64
2021/11/30 01:41:02;;;;;;;0.80;0.80;;;;;;;0.24;87.98;96814.09;29375;241;63009;-57
2021/11/30 01:41:36;;;;;;;0.80;0.80;;;;;;;0.22;88.14;96816.97;29375;241;63005;-57
2021/11/30 01:42:09;;;;;;;0.80;0.80;;;;;;;0.24;87.98;96814.91;29373;256;64009;-57
2021/11/30 01:42:45;;;;;;;0.73;0.73;;;;;;;0.28;87.69;96809.91;29375;232;63004;-58
2021/11/30 01:43:21;;;;;;;0.80;0.80;;;;;;;0.32;87.49;96816.44;29375;204;63022;-59
2021/11/30 01:43:54;;;;;;;0.80;0.80;;;;;;;0.31;87.41;96818.28;29373;249;64004;-58
2021/11/30 01:47:11;;;;;;;;;;;;;;;0.23;87.20;96823.13;29974;982;27203;-57
2021/11/30 01:49:34;;;;;;;0.80;0.80;;;;;;;0.20;87.51;96818.25;29375;235;63000;-56
2021/11/30 01:50:09;;;;;;;0.80;0.80;;;;;;;0.20;87.70;96818.25;29375;233;63004;-58
2021/11/30 01:50:44;;;;;;;0.80;0.80;;;;;;;0.24;87.84;96819.41;29375;231;63000;-60
2021/11/30 01:51:17;;;;;;;1.10;1.10;;;;;;;0.30;87.62;96827.34;29372;262;64009;-64
2021/11/30 01:51:48;;;;;;;0.80;0.80;;;;;;;0.31;87.32;96820.13;29375;245;63004;-66
2021/11/30 01:52:21;;;;;;;0.70;0.70;;;;;;;0.29;87.17;96816.88;29375;214;63009;-67
2021/11/30 01:52:52;;;;;;;0.80;0.80;;;;;;;0.30;87.19;96822.00;29373;220;63004;-56
2021/11/30 01:53:24;;;;;;;0.80;0.80;;;;;;;0.29;87.24;96817.69;29373;246;63009;-57
2021/11/30 01:53:56;;;;;;;0.80;0.80;;;;;;;0.32;87.19;96824.44;29373;214;63005;-58
2021/11/30 01:54:28;;;;;;;0.80;0.80;;;;;;;0.34;87.04;96817.00;29373;273;63009;-66
2021/11/30 01:54:59;;;;;;;0.80;0.80;;;;;;;0.31;86.97;96820.94;29373;204;63005;-58
2021/11/30 01:55:32;;;;;;;0.80;0.80;;;;;;;0.29;87.04;96816.88;29373;219;63009;-58
2021/11/30 01:56:04;;;;;;;0.80;0.80;;;;;;;0.23;87.34;96813.28;29373;212;63005;-65
2021/11/30 01:56:36;;;;;;;0.80;0.80;;;;;;;0.22;87.39;96822.31;29371;213;64009;-57
2021/11/30 01:57:09;;;;;;;0.80;0.80;;;;;;;0.21;87.45;96815.34;29373;197;63005;-57
2021/11/30 01:57:41;;;;;;;0.80;0.80;;;;;;;0.27;87.15;96818.97;29373;298;63009;-64
2021/11/30 01:58:13;;;;;;;0.80;0.80;;;;;;;0.21;87.04;96803.88;29373;210;63009;-57
2021/11/30 01:58:46;;;;;;;0.80;0.80;;;;;;;0.24;87.16;96814.09;29373;202;63009;-65
2021/11/30 01:59:18;;;;;;;0.80;0.80;;;;;;;0.21;87.20;96809.22;29373;220;63004;-58
2021/11/30 01:59:52;;;;;;;0.80;0.80;;;;;;;0.19;87.32;96811.28;29373;202;63009;-67
2021/11/30 02:00:24;;;;;;;0.80;0.80;;;;;;;0.18;87.65;96820.34;29373;210;63004;-63
2021/11/30 02:00:55;;;;;;;0.80;0.80;;;;;;;0.19;87.83;96816.63;29373;224;63017;-59
2021/11/30 02:01:27;;;;;;;0.90;0.90;;;;;;;0.29;87.03;96811.53;29373;199;63005;-57
2021/11/30 02:01:58;;;;;;;1.45;1.45;;;;;;;0.31;86.76;96815.63;29371;223;64009;-65
2021/11/30 02:02:29;;;;;;;0.80;0.80;;;;;;;0.33;86.75;96812.72;29373;218;63008;-68
2021/11/30 02:03:05;;;;;;;0.80;0.80;;;;;;;0.32;86.66;96805.75;29373;260;63009;-65
2021/11/30 02:03:37;;;;;;;0.80;0.80;;;;;;;0.32;86.56;96811.09;29371;226;64005;-66
2021/11/30 02:04:08;;;;;;;0.80;0.80;;;;;;;0.30;86.60;96802.50;29373;225;63009;-68
2021/11/30 02:04:40;;;;;;;0.80;0.80;;;;;;;0.33;86.65;96802.03;29373;217;63005;-66
2021/11/30 02:05:12;;;;;;;0.80;0.80;;;;;;;0.30;86.31;96813.19;29373;218;63009;-57
2021/11/30 02:05:43;;;;;;;0.70;0.70;;;;;;;0.24;86.31;96806.09;29373;202;63008;-57
2021/11/30 02:06:15;;;;;;;0.80;0.80;;;;;;;0.25;86.65;96813.84;29373;209;63009;-59
2021/11/30 02:06:47;;;;;;;0.80;0.80;;;;;;;0.24;86.93;96814.09;29373;234;63004;-65
2021/11/30 02:07:18;;;;;;;0.80;0.80;;;;;;;0.22;87.03;96810.84;29371;226;64009;-59
2021/11/30 02:07:50;;;;;;;0.80;0.80;;;;;;;0.21;87.32;96814.53;29373;209;63004;-57
2021/11/30 02:08:21;;;;;;;0.80;0.80;;;;;;;0.19;87.37;96811.28;29373;223;63008;-59
2021/11/30 02:08:54;;;;;;;0.70;0.70;;;;;;;0.19;87.50;96805.94;29371;224;64005;-56
2021/11/30 02:09:27;;;;;;;0.80;0.80;;;;;;;0.22;87.65;96813.50;29373;215;63009;-58
2021/11/30 02:09:58;;;;;;;0.75;0.75;;;;;;;0.24;87.79;96812.22;29373;216;63005;-66
2021/11/30 02:10:32;;;;;;;0.80;0.80;;;;;;;0.23;87.46;96812.47;29373;220;63009;-65
2021/11/30 02:11:04;;;;;;;0.80;0.80;;;;;;;0.19;87.52;96811.28;29373;293;63005;-59
2021/11/30 02:11:36;;;;;;;0.70;0.70;;;;;;;0.17;87.61;96811.50;29373;213;63009;-58
2021/11/30 02:12:10;;;;;;;0.80;0.80;;;;;;;0.15;87.94;96810.13;29373;211;63005;-55
2021/11/30 02:12:42;;;;;;;0.80;0.80;;;;;;;0.19;88.13;96816.63;29371;221;64009;-57
2021/11/30 02:13:14;;;;;;;0.80;0.80;;;;;;;0.19;87.72;96819.28;29373;258;63004;-59
2021/11/30 02:13:46;;;;;;;0.80;0.80;;;;;;;0.22;87.59;96810.84;29373;209;63016;-67
2021/11/30 02:14:17;;;;;;;0.70;0.70;;;;;;;0.22;87.62;96824.19;29373;266;63008;-59
2021/11/30 02:14:50;;;;;;;0.80;0.80;;;;;;;0.23;87.70;96807.13;29373;225;63009;-58
2021/11/30 02:15:25;;;;;;;0.80;0.80;;;;;;;0.22;87.54;96808.16;29371;198;64004;-58
2021/11/30 02:15:59;;;;;;;0.70;0.70;;;;;;;0.21;87.62;96814.53;29373;258;63008;-57
2021/11/30 02:16:31;;;;;;;0.80;0.80;;;;;;;0.23;87.51;96807.94;29373;205;63005;-66
2021/11/30 02:17:06;;;;;;;0.80;0.80;;;;;;;0.28;87.37;96810.72;29373;276;63014;-72
2021/11/30 02:17:39;;;;;;;0.80;0.80;;;;;;;0.31;86.81;96814.81;29373;214;63005;-67
2021/11/30 02:18:13;;;;;;;0.80;0.80;;;;;;;0.30;86.67;96818.50;29373;258;63009;-58
2021/11/30 02:18:46;;;;;;;0.80;0.80;;;;;;;0.36;86.25;96816.75;29373;222;63005;-61
2021/11/30 02:19:19;;;;;;;0.70;0.70;;;;;;;0.39;85.65;96811.78;29371;197;64009;-61
2021/11/30 02:19:56;;;;;;;0.80;0.80;;;;;;;0.44;85.58;96817.25;29373;265;63004;-60
2021/11/30 02:20:27;;;;;;;0.80;0.80;;;;;;;0.45;85.37;96818.88;29373;261;63009;-67
2021/11/30 02:21:03;;;;;;;0.80;0.80;;;;;;;0.41;85.50;96819.56;29373;231;63004;-59
2021/11/30 02:21:37;;;;;;;0.80;0.80;;;;;;;0.34;85.82;96819.69;29373;235;63009;-64
2021/11/30 02:22:13;;;;;;;0.80;0.80;;;;;;;0.41;85.46;96828.38;29373;232;63004;-59
2021/11/30 02:22:56;;;;;;;0.80;0.80;;;;;;;0.52;84.64;96822.25;29371;266;64008;-57
2021/11/30 02:24:23;;;;;;;0.80;0.80;;;;;;;0.42;85.09;96819.31;29373;284;63009;-66
2021/11/30 02:24:55;;;;;;;0.80;0.80;;;;;;;0.43;85.11;96818.28;29373;230;63005;-57
2021/11/30 02:25:26;;;;;;;0.80;0.80;;;;;;;0.40;85.07;96823.25;29373;193;63009;-58
2021/11/30 02:26:05;;;;;;;0.75;0.75;;;;;;;0.41;85.24;96820.38;29373;266;63005;-58
2021/11/30 02:26:38;;;;;;;0.80;0.80;;;;;;;0.48;84.82;96815.75;29373;202;63009;-57
2021/11/30 02:27:10;;;;;;;0.80;0.80;;;;;;;0.47;84.35;96819.44;29373;257;63004;-68
2021/11/30 02:27:41;;;;;;;0.70;0.70;;;;;;;0.43;84.57;96823.63;29371;241;64009;-57
2021/11/30 02:28:12;;;;;;;1.02;1.02;;;;;;;0.40;84.88;96828.59;29373;236;63004;-67
2021/11/30 02:28:48;;;;;;;0.75;0.75;;;;;;;0.38;85.08;96820.81;29373;237;63009;-57
2021/11/30 02:29:19;;;;;;;0.80;0.80;;;;;;;0.38;85.21;96828.00;29371;225;64004;-71
2021/11/30 02:29:51;;;;;;;0.70;0.70;;;;;;;0.39;84.86;96821.63;29373;215;63008;-68
2021/11/30 02:30:22;;;;;;;0.70;0.70;;;;;;;0.40;85.20;96826.75;29371;197;64005;-69
2021/11/30 02:30:53;;;;;;;0.80;0.80;;;;;;;0.39;85.27;96821.63;29373;249;63009;-69
2021/11/30 02:31:29;;;;;;;0.80;0.80;;;;;;;0.32;85.21;96822.56;29373;224;63005;-57
2021/11/30 02:32:00;;;;;;;0.70;0.70;;;;;;;0.37;85.26;96824.53;29373;223;63009;-56
2021/11/30 02:32:31;;;;;;;0.80;0.80;;;;;;;0.34;84.91;96830.34;29373;211;63005;-57
2021/11/30 02:33:03;;;;;;;0.80;0.80;;;;;;;0.31;84.92;96826.28;29373;247;63009;-57
2021/11/30 02:33:35;;;;;;;0.80;0.80;;;;;;;0.28;85.26;96825.94;29372;216;63005;-61
2021/11/30 02:34:06;;;;;;;0.80;0.80;;;;;;;0.32;84.97;96827.91;29373;215;63009;-69
2021/11/30 02:34:39;;;;;;;0.80;0.80;;;;;;;0.30;85.07;96823.84;29373;206;63004;-58
2021/11/30 02:35:14;;;;;;;0.80;0.80;;;;;;;0.29;85.28;96825.69;29373;218;63009;-58
2021/11/30 02:35:47;;;;;;;0.70;0.70;;;;;;;0.27;85.53;96829.66;29371;260;64004;-68
2021/11/30 02:36:28;;;;;;;0.80;0.80;;;;;;;0.29;85.80;96827.56;29373;211;63009;-67
2021/11/30 02:37:05;;;;;;;0.80;0.80;;;;;;;0.34;85.55;96825.03;29373;204;63004;-69
2021/11/30 02:37:51;;;;;;;0.80;0.80;;;;;;;0.37;85.04;96829.87;29373;233;63008;-61
2021/11/30 02:38:23;;;;;;;0.80;0.80;;;;;;;0.36;84.91;96820.25;29373;214;63016;-57
2021/11/30 02:38:57;;;;;;;0.80;0.80;;;;;;;0.36;84.87;96819.41;29373;213;63009;-68
2021/11/30 02:39:30;;;;;;;0.80;0.80;;;;;;;0.33;84.99;96826.88;29373;224;63005;-57
2021/11/30 02:40:04;;;;;;;0.80;0.80;;;;;;;0.30;84.72;96821.19;29373;231;63009;-58
2021/11/30 02:40:36;;;;;;;0.85;0.85;;;;;;;0.30;85.04;96815.84;29373;205;63005;-69
2021/11/30 02:41:07;;;;;;;0.80;0.80;;;;;;;0.36;84.86;96817.56;29371;215;64009;-59
2021/11/30 02:41:41;;;;;;;0.80;0.80;;;;;;;0.37;84.22;96819.19;29373;236;63005;-66
2021/11/30 02:42:12;;;;;;;0.80;0.80;;;;;;;0.34;84.33;96822.34;29373;205;63009;-58
2021/11/30 02:42:43;;;;;;;0.80;0.80;;;;;;;0.33;84.40;96820.72;29373;309;63004;-58
2021/11/30 02:43:15;;;;;;;0.80;0.80;;;;;;;0.37;84.66;96829.06;29373;197;63009;-68
2021/11/30 02:43:47;;;;;;;0.80;0.80;;;;;;;0.39;83.96;96821.63;29373;213;63004;-57